createdAt,value
2019-05-07T00:01:12.256Z,87381.30
2019-05-07T00:03:39.228Z,87379.83
2019-05-07T00:06:05.943Z,87385.38
2019-05-07T00:08:32.702Z,87382.01
2019-05-07T00:11:02.325Z,87379.65
2019-05-07T00:13:28.955Z,87379.86
2019-05-07T00:15:55.695Z,87384.28
2019-05-07T00:18:23.079Z,87373.60
2019-05-07T00:20:49.952Z,87374.13
2019-05-07T00:23:16.711Z,87377.70
2019-05-07T00:25:43.504Z,87374.67
2019-05-07T00:28:12.256Z,87378.35
2019-05-07T00:30:38.783Z,87378.64
2019-05-07T00:33:05.572Z,87374.84
2019-05-07T00:35:32.468Z,87377.09
2019-05-07T00:37:59.163Z,87368.21
2019-05-07T00:40:25.983Z,87372.55
2019-05-07T00:42:53.041Z,87370.48
2019-05-07T00:45:21.595Z,87371.42
2019-05-07T00:47:48.938Z,87371.48
2019-05-07T00:50:15.783Z,87372.28
2019-05-07T00:52:43.085Z,87373.45
2019-05-07T00:55:11.972Z,87373.63
2019-05-07T00:57:38.558Z,87372.65
2019-05-07T01:00:05.796Z,87375.00
2019-05-07T01:02:32.611Z,87370.59
2019-05-07T01:04:59.336Z,87372.94
2019-05-07T01:07:26.107Z,87374.12
2019-05-07T01:09:52.917Z,87372.14
2019-05-07T01:12:19.692Z,87371.08
2019-05-07T01:14:46.413Z,87373.44
2019-05-07T01:17:13.237Z,87377.81
2019-05-07T01:19:42.224Z,87375.22
2019-05-07T01:22:08.524Z,87377.01
2019-05-07T01:24:35.399Z,87375.67
2019-05-07T01:27:02.257Z,87378.96
2019-05-07T01:29:29.007Z,87379.05
2019-05-07T01:31:55.800Z,87379.97
2019-05-07T01:34:23.061Z,87379.97
2019-05-07T01:36:52.237Z,87381.80
2019-05-07T01:39:18.576Z,87382.97
2019-05-07T01:41:45.322Z,87384.75
2019-05-07T01:44:12.856Z,87379.41
2019-05-07T01:46:42.080Z,87380.25
2019-05-07T01:49:08.427Z,87385.97
2019-05-07T01:51:35.162Z,87383.94
2019-05-07T01:54:02.311Z,87381.34
2019-05-07T01:56:29.228Z,87387.98
2019-05-07T01:58:55.954Z,87387.53
2019-05-07T02:01:22.860Z,87384.17
2019-05-07T02:03:49.623Z,87383.94
2019-05-07T02:06:16.372Z,87385.55
2019-05-07T02:08:43.192Z,87384.65
2019-05-07T02:11:09.904Z,87379.02
2019-05-07T02:13:36.717Z,87376.95
2019-05-07T02:16:04.304Z,87370.35
2019-05-07T02:18:32.601Z,87374.00
2019-05-07T02:20:59.960Z,87372.25
2019-05-07T02:23:26.738Z,87375.53
2019-05-07T02:25:53.493Z,87370.03
2019-05-07T02:28:22.178Z,87370.72
2019-05-07T02:30:48.862Z,87372.38
2019-05-07T02:33:15.619Z,87370.64
2019-05-07T02:35:43.855Z,87369.98
2019-05-07T02:38:13.704Z,87372.57
2019-05-07T02:40:39.627Z,87368.69
2019-05-07T02:43:06.570Z,87368.18
2019-05-07T02:45:33.507Z,87358.97
2019-05-07T02:48:03.246Z,87372.14
2019-05-07T02:50:28.816Z,87372.98
2019-05-07T02:52:55.618Z,87373.59
2019-05-07T02:55:23.175Z,87374.67
2019-05-07T02:57:50.214Z,87377.79
2019-05-07T03:00:19.539Z,87378.92
2019-05-07T03:02:45.620Z,87372.16
2019-05-07T03:05:13.644Z,87376.88
2019-05-07T03:07:42.803Z,87381.38
2019-05-07T03:10:09.336Z,87378.02
2019-05-07T03:12:36.446Z,87378.02
2019-05-07T03:15:04.773Z,87387.67
2019-05-07T03:17:33.296Z,87383.66
2019-05-07T03:20:03.147Z,87384.81
2019-05-07T03:22:28.993Z,87386.19
2019-05-07T03:24:55.750Z,87376.30
2019-05-07T03:27:23.459Z,87379.41
2019-05-07T03:29:53.320Z,87373.55
2019-05-07T03:32:19.116Z,87375.92
2019-05-07T03:34:47.172Z,87378.34
2019-05-07T03:37:14.276Z,87378.80
2019-05-07T03:39:43.334Z,87376.98
2019-05-07T03:42:12.752Z,87377.50
2019-05-07T03:44:38.207Z,87380.93
2019-05-07T03:47:06.438Z,87379.95
2019-05-07T03:49:34.192Z,87378.66
2019-05-07T03:52:04.199Z,87378.48
2019-05-07T03:54:29.892Z,87384.11
2019-05-07T03:56:56.609Z,87383.45
2019-05-07T03:59:23.512Z,87395.09
2019-05-07T04:01:53.585Z,87392.19
2019-05-07T04:04:18.863Z,87397.75
2019-05-07T04:06:45.689Z,87395.69
2019-05-07T04:09:13.373Z,87395.44
2019-05-07T04:11:43.060Z,87390.05
2019-05-07T04:14:08.932Z,87392.33
2019-05-07T04:16:35.660Z,87390.97
2019-05-07T04:19:03.850Z,87390.97
2019-05-07T04:21:34.149Z,87384.05
2019-05-07T04:23:59.322Z,87381.74
2019-05-07T04:26:26.081Z,87385.34
2019-05-07T04:28:53.955Z,87381.22
2019-05-07T04:31:22.933Z,87385.03
2019-05-07T04:33:49.565Z,87390.52
2019-05-07T04:36:16.425Z,87393.63
2019-05-07T04:38:43.957Z,87400.55
2019-05-07T04:41:13.608Z,87398.80
2019-05-07T04:43:43.183Z,87397.43
2019-05-07T04:46:08.333Z,87394.98
2019-05-07T04:48:35.074Z,87397.33
2019-05-07T04:51:03.540Z,87400.16
2019-05-07T04:53:32.850Z,87400.68
2019-05-07T04:55:58.957Z,87394.87
2019-05-07T04:58:26.746Z,87398.38
2019-05-07T05:00:53.950Z,87405.52
2019-05-07T05:03:23.417Z,87399.97
2019-05-07T05:05:49.340Z,87395.11
2019-05-07T05:08:16.089Z,87397.91
2019-05-07T05:10:43.419Z,87396.93
2019-05-07T05:13:12.622Z,87400.81
2019-05-07T05:15:38.911Z,87400.36
2019-05-07T05:18:05.622Z,87392.36
2019-05-07T05:20:33.633Z,87389.78
2019-05-07T05:23:20.200Z,87389.70
2019-05-07T05:25:47.084Z,87391.24
2019-05-07T05:28:13.838Z,87392.15
2019-05-07T05:30:42.724Z,87387.96
2019-05-07T05:33:09.529Z,87385.83
2019-05-07T05:35:36.382Z,87385.69
2019-05-07T05:38:03.838Z,87386.77
2019-05-07T05:40:31.971Z,87380.17
2019-05-07T05:42:58.888Z,87385.48
2019-05-07T05:45:25.673Z,87379.85
2019-05-07T05:48:04.434Z,87376.36
2019-05-07T05:50:21.874Z,87383.12
2019-05-07T05:52:48.617Z,87373.61
2019-05-07T05:55:15.437Z,87384.42
2019-05-07T05:57:42.478Z,87374.30
2019-05-07T06:00:12.448Z,87370.41
2019-05-07T06:02:38.726Z,87375.80
2019-05-07T06:05:05.540Z,87376.16
2019-05-07T06:07:32.254Z,87371.44
2019-05-07T06:09:59.077Z,87370.80
2019-05-07T06:12:25.804Z,87362.10
2019-05-07T06:14:53.886Z,87371.91
2019-05-07T06:17:22.395Z,87359.68
2019-05-07T06:19:49.291Z,87359.32
2019-05-07T06:22:16.809Z,87346.80
2019-05-07T06:24:43.734Z,87351.85
2019-05-07T06:27:12.268Z,87348.68
2019-05-07T06:29:39.037Z,87351.13
2019-05-07T06:32:05.839Z,87348.31
2019-05-07T06:34:34.267Z,87348.93
2019-05-07T06:37:02.321Z,87344.88
2019-05-07T06:39:29.349Z,87342.45
2019-05-07T06:41:56.093Z,87344.98
2019-05-07T06:44:22.819Z,87342.22
2019-05-07T06:46:49.614Z,87342.59
2019-05-07T06:49:16.364Z,87338.52
2019-05-07T06:51:43.085Z,87334.68
2019-05-07T06:54:09.916Z,87338.92
2019-05-07T06:56:36.646Z,87339.60
2019-05-07T06:59:03.476Z,87337.70
2019-05-07T07:01:32.255Z,87340.41
2019-05-07T07:03:58.885Z,87339.78
2019-05-07T07:06:25.656Z,87341.98
2019-05-07T07:08:52.662Z,87341.67
2019-05-07T07:11:19.486Z,87337.34
2019-05-07T07:13:46.209Z,87337.34
2019-05-07T07:16:13.081Z,87333.35
2019-05-07T07:18:49.523Z,87335.08
2019-05-07T07:21:08.440Z,87343.42
2019-05-07T07:23:35.258Z,87336.27
2019-05-07T07:26:03.119Z,87332.78
2019-05-07T07:28:32.406Z,87332.03
2019-05-07T07:30:58.787Z,87331.05
2019-05-07T07:33:25.516Z,87331.25
2019-05-07T07:35:52.246Z,87331.47
2019-05-07T07:38:19.021Z,87330.48
2019-05-07T07:40:45.738Z,87328.62
2019-05-07T07:43:12.994Z,87332.28
2019-05-07T07:45:41.903Z,87329.65
2019-05-07T07:48:08.330Z,87330.30
2019-05-07T07:50:35.060Z,87332.00
2019-05-07T07:53:02.515Z,87337.50
2019-05-07T07:55:29.477Z,87335.31
2019-05-07T07:57:56.203Z,87333.63
2019-05-07T08:00:23.427Z,87337.84
2019-05-07T08:02:50.246Z,87335.35
2019-05-07T08:05:17.085Z,87338.75
2019-05-07T08:07:43.877Z,87335.45
2019-05-07T08:10:12.866Z,87340.74
2019-05-07T08:12:41.972Z,87336.66
2019-05-07T08:15:16.718Z,87331.55
2019-05-07T08:17:37.132Z,87331.73
2019-05-07T08:20:06.269Z,87316.25
2019-05-07T08:22:33.184Z,87318.52
2019-05-07T08:25:01.754Z,87325.21
2019-05-07T08:27:28.459Z,87321.13
2019-05-07T08:29:55.267Z,87325.87
2019-05-07T08:32:22.397Z,87318.68
2019-05-07T08:34:49.475Z,87326.45
2019-05-07T08:37:16.287Z,87316.05
2019-05-07T08:39:43.088Z,87318.48
2019-05-07T08:42:12.103Z,87314.12
2019-05-07T08:44:38.427Z,87307.30
2019-05-07T08:47:05.142Z,87305.38
2019-05-07T08:49:39.399Z,87300.91
2019-05-07T08:52:03.099Z,87301.61
2019-05-07T08:54:32.922Z,87297.91
2019-05-07T08:57:01.978Z,87300.46
2019-05-07T08:59:28.880Z,87297.66
2019-05-07T09:01:55.625Z,87298.70
2019-05-07T09:04:22.590Z,87299.61
2019-05-07T09:06:49.611Z,87295.55
2019-05-07T09:09:16.374Z,87289.28
2019-05-07T09:11:43.283Z,87290.38
2019-05-07T09:14:12.255Z,87287.15
2019-05-07T09:16:38.603Z,87280.68
2019-05-07T09:19:05.575Z,87279.45
2019-05-07T09:21:33.171Z,87284.95
2019-05-07T09:23:59.903Z,87284.13
2019-05-07T09:26:26.661Z,87284.44
2019-05-07T09:28:53.533Z,87285.25
2019-05-07T09:31:22.326Z,87282.20
2019-05-07T09:33:48.917Z,87276.17
2019-05-07T09:36:15.720Z,87280.56
2019-05-07T09:38:55.226Z,87281.66
2019-05-07T09:41:12.035Z,87282.98
2019-05-07T09:43:38.975Z,87272.92
2019-05-07T09:46:05.714Z,87274.16
2019-05-07T09:48:33.852Z,87275.17
2019-05-07T09:51:02.305Z,87273.84
2019-05-07T09:53:29.179Z,87273.39
2019-05-07T09:55:55.935Z,87265.83
2019-05-07T09:58:35.770Z,87268.36
2019-05-07T10:00:51.665Z,87270.00
2019-05-07T10:03:18.526Z,87268.94
2019-05-07T10:05:45.328Z,87265.36
2019-05-07T10:08:12.882Z,87257.73
2019-05-07T10:10:41.682Z,87262.09
2019-05-07T10:13:08.597Z,87255.77
2019-05-07T10:15:35.344Z,87262.91
2019-05-07T10:18:02.187Z,87261.94
2019-05-07T10:20:30.104Z,87254.56
2019-05-07T10:22:57.556Z,87253.55
2019-05-07T10:25:24.390Z,87248.53
2019-05-07T10:27:53.129Z,87246.99
2019-05-07T10:30:21.903Z,87246.89
2019-05-07T10:32:48.622Z,87242.42
2019-05-07T10:35:16.385Z,87243.95
2019-05-07T10:37:43.088Z,87238.97
2019-05-07T10:40:12.273Z,87237.79
2019-05-07T10:42:39.251Z,87240.70
2019-05-07T10:45:06.824Z,87232.91
2019-05-07T10:47:33.565Z,87234.66
2019-05-07T10:50:02.778Z,87230.94
2019-05-07T10:52:29.174Z,87232.13
2019-05-07T10:55:03.846Z,87235.22
2019-05-07T10:57:32.886Z,87228.09
2019-05-07T11:00:03.023Z,87222.34
2019-05-07T11:02:29.325Z,87214.73
2019-05-07T11:04:56.121Z,87221.92
2019-05-07T11:07:22.970Z,87216.69
2019-05-07T11:09:49.724Z,87214.47
2019-05-07T11:12:16.546Z,87218.81
2019-05-07T11:14:43.875Z,87210.91
2019-05-07T11:17:11.866Z,87210.72
2019-05-07T11:19:38.867Z,87203.17
2019-05-07T11:22:05.628Z,87204.30
2019-05-07T11:24:32.361Z,87201.47
2019-05-07T11:26:59.247Z,87197.85
2019-05-07T11:29:25.997Z,87196.48
2019-05-07T11:31:55.521Z,87198.70
2019-05-07T11:34:22.407Z,87192.22
2019-05-07T11:36:49.171Z,87190.84
2019-05-07T11:39:15.902Z,87187.63
2019-05-07T11:41:42.829Z,87184.95
2019-05-07T11:44:09.491Z,87180.56
2019-05-07T11:46:36.227Z,87177.52
2019-05-07T11:49:03.203Z,87180.12
2019-05-07T11:51:29.961Z,87181.17
2019-05-07T11:53:56.671Z,87175.23
2019-05-07T11:56:23.660Z,87174.41
2019-05-07T11:58:52.833Z,87173.28
2019-05-07T12:01:19.222Z,87161.02
2019-05-07T12:03:46.160Z,87165.63
2019-05-07T12:06:13.006Z,87161.89
2019-05-07T12:08:48.137Z,87164.95
2019-05-07T12:11:08.456Z,87165.78
2019-05-07T12:13:35.227Z,87162.09
2019-05-07T12:16:02.951Z,87167.89
2019-05-07T12:18:31.980Z,87162.73
2019-05-07T12:20:58.750Z,87154.17
2019-05-07T12:23:25.517Z,87146.25
2019-05-07T12:25:52.879Z,87152.88
2019-05-07T12:28:19.917Z,87157.70
2019-05-07T12:30:46.701Z,87154.42
2019-05-07T12:33:13.590Z,87155.56
2019-05-07T12:35:42.091Z,87145.33
2019-05-07T12:38:08.910Z,87142.51
2019-05-07T12:40:35.803Z,87138.10
2019-05-07T12:43:02.668Z,87137.69
2019-05-07T12:45:29.487Z,87138.86
2019-05-07T12:47:56.359Z,87138.32
2019-05-07T12:50:23.128Z,87148.41
2019-05-07T12:52:49.927Z,87143.26
2019-05-07T12:55:16.906Z,87140.70
2019-05-07T12:57:43.667Z,87139.77
2019-05-07T13:00:12.260Z,87141.53
2019-05-07T13:02:42.085Z,87143.96
2019-05-07T13:05:07.900Z,87137.16
2019-05-07T13:07:34.676Z,87135.64
2019-05-07T13:10:02.598Z,87133.30
2019-05-07T13:12:29.481Z,87133.61
2019-05-07T13:14:56.251Z,87132.41
2019-05-07T13:17:23.114Z,87132.23
2019-05-07T13:19:49.950Z,87128.63
2019-05-07T13:22:22.564Z,87130.73
2019-05-07T13:24:49.337Z,87127.91
2019-05-07T13:27:16.146Z,87124.74
2019-05-07T13:29:44.916Z,87125.78
2019-05-07T13:32:13.803Z,87128.55
2019-05-07T13:34:42.575Z,87118.57
2019-05-07T13:37:12.729Z,87117.46
2019-05-07T13:39:40.064Z,87123.27
2019-05-07T13:42:07.076Z,87121.88
2019-05-07T13:44:34.233Z,87115.81
2019-05-07T13:47:02.063Z,87111.62
2019-05-07T13:49:29.719Z,87106.42
2019-05-07T13:52:03.529Z,87106.12
2019-05-07T13:54:25.135Z,87103.31
2019-05-07T13:56:52.542Z,87097.77
2019-05-07T13:59:19.465Z,87099.54
2019-05-07T14:01:46.290Z,87096.14
2019-05-07T14:04:13.158Z,87095.64
2019-05-07T14:06:42.978Z,87094.91
2019-05-07T14:09:12.257Z,87093.06
2019-05-07T14:11:39.154Z,87088.52
2019-05-07T14:14:05.924Z,87081.69
2019-05-07T14:16:32.759Z,87079.98
2019-05-07T14:18:59.696Z,87070.27
2019-05-07T14:21:26.512Z,87072.21
2019-05-07T14:23:53.323Z,87069.86
2019-05-07T14:26:23.740Z,87070.05
2019-05-07T14:28:48.652Z,87064.73
2019-05-07T14:31:16.336Z,87060.45
2019-05-07T14:33:43.081Z,87061.26
2019-05-07T14:36:11.621Z,87054.08
2019-05-07T14:38:38.405Z,87055.52
2019-05-07T14:41:05.161Z,87058.88
2019-05-07T14:43:32.458Z,87048.98
2019-05-07T14:45:59.356Z,87048.14
2019-05-07T14:48:26.249Z,87048.30
2019-05-07T14:50:53.104Z,87054.57
2019-05-07T14:53:22.378Z,87058.68
2019-05-07T14:55:49.180Z,87059.66
2019-05-07T14:58:17.808Z,87059.61
2019-05-07T15:00:44.660Z,87065.73
2019-05-07T15:03:12.489Z,87054.71
2019-05-07T15:05:39.476Z,87061.24
2019-05-07T15:08:10.517Z,87050.41
2019-05-07T15:10:35.019Z,87044.05
2019-05-07T15:13:02.337Z,87042.02
2019-05-07T15:15:29.489Z,87036.47
2019-05-07T15:17:57.034Z,87036.72
2019-05-07T15:20:24.411Z,87045.70
2019-05-07T15:22:52.646Z,87045.80
2019-05-07T15:25:22.529Z,87057.55
2019-05-07T15:27:49.835Z,87045.80
2019-05-07T15:30:18.011Z,87049.11
2019-05-07T15:32:44.815Z,87047.95
2019-05-07T15:35:12.602Z,87044.95
2019-05-07T15:37:39.582Z,87045.88
2019-05-07T15:40:07.748Z,87042.16
2019-05-07T15:42:34.519Z,87041.80
2019-05-07T15:45:02.325Z,87039.20
2019-05-07T15:47:31.540Z,87040.03
2019-05-07T15:49:57.926Z,87042.16
2019-05-07T15:52:24.915Z,87050.83
2019-05-07T15:54:52.298Z,87051.73
2019-05-07T15:57:19.138Z,87054.97
2019-05-07T15:59:45.988Z,87059.27
2019-05-07T16:02:12.780Z,87060.35
2019-05-07T16:04:39.539Z,87062.50
2019-05-07T16:07:06.371Z,87060.80
2019-05-07T16:09:33.382Z,87065.94
2019-05-07T16:12:00.134Z,87070.94
2019-05-07T16:14:27.210Z,87073.20
2019-05-07T16:16:54.045Z,87071.83
2019-05-07T16:19:20.929Z,87077.95
2019-05-07T16:21:48.296Z,87076.23
2019-05-07T16:24:15.051Z,87067.55
2019-05-07T16:26:42.048Z,87068.48
2019-05-07T16:29:08.958Z,87068.13
2019-05-07T16:31:35.919Z,87075.47
2019-05-07T16:34:05.710Z,87072.48
2019-05-07T16:36:33.007Z,87069.48
2019-05-07T16:38:59.919Z,87079.44
2019-05-07T16:41:26.651Z,87080.01
2019-05-07T16:43:53.487Z,87083.06
2019-05-07T16:46:22.278Z,87082.62
2019-05-07T16:48:48.895Z,87083.77
2019-05-07T16:51:15.724Z,87089.15
2019-05-07T16:53:42.485Z,87091.05
2019-05-07T16:56:09.291Z,87092.38
2019-05-07T16:58:36.117Z,87093.91
2019-05-07T17:01:03.065Z,87101.22
2019-05-07T17:03:31.760Z,87104.34
2019-05-07T17:05:58.789Z,87096.36
2019-05-07T17:08:25.529Z,87107.30
2019-05-07T17:10:52.456Z,87104.31
2019-05-07T17:13:19.287Z,87109.81
2019-05-07T17:15:46.143Z,87109.86
2019-05-07T17:18:12.918Z,87112.52
2019-05-07T17:20:39.771Z,87117.09
2019-05-07T17:23:06.563Z,87116.78
2019-05-07T17:25:33.491Z,87119.47
2019-05-07T17:28:00.323Z,87121.41
2019-05-07T17:30:27.131Z,87123.04
2019-05-07T17:32:53.902Z,87127.41
2019-05-07T17:35:22.443Z,87126.35
2019-05-07T17:37:49.310Z,87127.34
2019-05-07T17:40:18.026Z,87131.54
2019-05-07T17:42:46.701Z,87137.77
2019-05-07T17:45:13.685Z,87136.70
2019-05-07T17:47:42.367Z,87134.26
2019-05-07T17:50:09.491Z,87134.11
2019-05-07T17:52:36.274Z,87138.47
2019-05-07T17:55:05.640Z,87145.84
2019-05-07T17:57:33.459Z,87141.90
2019-05-07T18:00:02.211Z,87146.22
2019-05-07T18:02:32.194Z,87145.49
2019-05-07T18:04:59.236Z,87152.29
2019-05-07T18:07:26.013Z,87147.59
2019-05-07T18:09:52.751Z,87148.73
2019-05-07T18:12:22.486Z,87154.57
2019-05-07T18:14:49.509Z,87157.79
2019-05-07T18:17:16.264Z,87158.92
2019-05-07T18:19:44.445Z,87160.44
2019-05-07T18:22:12.779Z,87166.08
2019-05-07T18:24:41.885Z,87166.65
2019-05-07T18:27:08.641Z,87165.34
2019-05-07T18:29:35.621Z,87168.70
2019-05-07T18:32:02.534Z,87172.65
2019-05-07T18:34:29.350Z,87164.73
2019-05-07T18:36:56.102Z,87167.17
2019-05-07T18:39:22.899Z,87166.97
2019-05-07T18:41:49.781Z,87168.66
2019-05-07T18:44:16.607Z,87176.74
2019-05-07T18:46:43.362Z,87178.03
2019-05-07T18:49:10.198Z,87176.34
2019-05-07T18:51:36.981Z,87182.14
2019-05-07T18:54:03.758Z,87183.08
2019-05-07T18:56:30.664Z,87182.26
2019-05-07T18:58:57.435Z,87180.92
2019-05-07T19:01:24.198Z,87177.52
2019-05-07T19:03:52.592Z,87184.25
2019-05-07T19:06:19.371Z,87182.93
2019-05-07T19:08:46.928Z,87184.00
2019-05-07T19:11:13.855Z,87188.87
2019-05-07T19:13:41.947Z,87187.91
2019-05-07T19:16:09.045Z,87185.80
2019-05-07T19:18:35.865Z,87189.52
2019-05-07T19:21:02.730Z,87184.98
2019-05-07T19:23:29.479Z,87191.00
2019-05-07T19:25:56.778Z,87192.61
2019-05-07T19:28:23.532Z,87194.13
2019-05-07T19:30:52.554Z,87196.33
2019-05-07T19:33:18.936Z,87204.37
2019-05-07T19:35:45.734Z,87209.00
2019-05-07T19:38:12.503Z,87213.88
2019-05-07T19:40:39.369Z,87204.83
2019-05-07T19:43:06.112Z,87211.93
2019-05-07T19:45:32.891Z,87207.78
2019-05-07T19:47:59.704Z,87210.41
2019-05-07T19:50:26.452Z,87215.48
2019-05-07T19:52:53.223Z,87219.76
2019-05-07T19:55:21.846Z,87211.81
2019-05-07T19:57:48.602Z,87213.30
2019-05-07T20:00:16.969Z,87216.45
2019-05-07T20:02:43.828Z,87210.42
2019-05-07T20:05:12.131Z,87210.59
2019-05-07T20:07:38.979Z,87211.52
2019-05-07T20:10:06.071Z,87207.91
2019-05-07T20:12:32.867Z,87207.50
2019-05-07T20:14:59.618Z,87214.41
2019-05-07T20:17:26.547Z,87213.84
2019-05-07T20:19:53.323Z,87216.63
2019-05-07T20:22:22.050Z,87223.56
2019-05-07T20:24:48.718Z,87232.76
2019-05-07T20:27:15.505Z,87231.22
2019-05-07T20:29:42.780Z,87236.05
2019-05-07T20:32:09.842Z,87245.77
2019-05-07T20:34:36.616Z,87249.31
2019-05-07T20:37:03.384Z,87257.03
2019-05-07T20:39:32.128Z,87261.12
2019-05-07T20:41:58.767Z,87254.38
2019-05-07T20:44:25.544Z,87251.34
2019-05-07T20:46:53.552Z,87248.92
2019-05-07T20:49:22.533Z,87255.88
2019-05-07T20:51:49.815Z,87251.94
2019-05-07T20:54:17.077Z,87254.54
2019-05-07T20:56:46.624Z,87260.13
2019-05-07T20:59:13.227Z,87257.84
2019-05-07T21:01:42.010Z,87257.66
2019-05-07T21:04:08.779Z,87258.97
2019-05-07T21:06:35.550Z,87256.02
2019-05-07T21:09:04.953Z,87260.05
2019-05-07T21:11:32.323Z,87255.77
2019-05-07T21:13:59.339Z,87264.75
2019-05-07T21:16:26.200Z,87267.42
2019-05-07T21:18:53.006Z,87275.88
2019-05-07T21:21:21.777Z,87276.82
2019-05-07T21:23:48.421Z,87276.03
2019-05-07T21:26:15.247Z,87285.61
2019-05-07T21:28:43.134Z,87286.16
2019-05-07T21:31:11.944Z,87279.15
2019-05-07T21:33:38.855Z,87277.20
2019-05-07T21:36:05.616Z,87273.94
2019-05-07T21:38:33.042Z,87285.56
2019-05-07T21:40:59.892Z,87283.55
2019-05-07T21:43:26.636Z,87287.76
2019-05-07T21:45:53.565Z,87290.73
2019-05-07T21:48:22.262Z,87294.69
2019-05-07T21:50:49.108Z,87298.95
2019-05-07T21:53:16.131Z,87298.69
2019-05-07T21:55:44.262Z,87305.89
2019-05-07T21:58:11.819Z,87301.30
2019-05-07T22:00:39.145Z,87300.63
2019-05-07T22:03:06.111Z,87298.48
2019-05-07T22:05:32.849Z,87300.56
2019-05-07T22:08:01.477Z,87305.13
2019-05-07T22:10:28.227Z,87305.91
2019-05-07T22:12:54.988Z,87304.76
2019-05-07T22:15:22.460Z,87303.00
2019-05-07T22:17:49.252Z,87301.97
2019-05-07T22:20:16.027Z,87303.14
2019-05-07T22:22:42.941Z,87297.86
2019-05-07T22:25:09.902Z,87300.06
2019-05-07T22:27:36.902Z,87293.85
2019-05-07T22:30:07.249Z,87290.78
2019-05-07T22:32:34.082Z,87291.11
2019-05-07T22:35:02.826Z,87294.70
2019-05-07T22:37:29.442Z,87292.91
2019-05-07T22:39:56.196Z,87295.25
2019-05-07T22:42:22.941Z,87293.89
2019-05-07T22:44:49.850Z,87291.05
2019-05-07T22:47:16.638Z,87283.84
2019-05-07T22:49:44.928Z,87285.91
2019-05-07T22:52:12.764Z,87289.96
2019-05-07T22:54:39.707Z,87287.16
2019-05-07T22:57:06.481Z,87275.30
2019-05-07T22:59:33.399Z,87275.66
2019-05-07T23:02:02.881Z,87275.25
2019-05-07T23:04:28.744Z,87278.10
2019-05-07T23:06:55.589Z,87278.37
2019-05-07T23:09:22.569Z,87274.58
2019-05-07T23:11:49.428Z,87270.19
2019-05-07T23:14:16.254Z,87266.54
2019-05-07T23:16:43.132Z,87270.38
2019-05-07T23:19:09.874Z,87270.72
2019-05-07T23:21:36.669Z,87260.53
2019-05-07T23:24:03.454Z,87254.42
2019-05-07T23:26:33.541Z,87251.68
2019-05-07T23:28:58.999Z,87256.05
2019-05-07T23:31:25.788Z,87258.61
2019-05-07T23:33:52.549Z,87260.72
2019-05-07T23:36:19.405Z,87255.78
2019-05-07T23:38:46.137Z,87260.31
2019-05-07T23:41:12.919Z,87258.94
2019-05-07T23:43:39.832Z,87260.02
2019-05-07T23:46:06.613Z,87258.66
2019-05-07T23:48:33.389Z,87257.83
2019-05-07T23:51:02.073Z,87262.83
2019-05-07T23:53:28.841Z,87256.30
2019-05-07T23:55:55.620Z,87265.29
2019-05-07T23:58:23.078Z,87269.75
